Time;durP1;ratioP1;P1;durP2;ratioP2;P2;SDS_P1;SDS_P2;PMS_P1;PMS_P2;Temp;Humidity;BMP_temperature;BMP_pressure;BME280_temperature;BME280_humidity;BME280_pressure;Samples;Min_cycle;Max_cycle;Signal;HPM_P1;HPM_P2
2023/06/07 00:02:03;;;;;;;7.70;3.90;;;;;;;19.53;37.93;100875.95;110774;1208;97640;-60
2023/06/07 00:04:30;;;;;;;8.50;3.70;;;;;;;19.52;38.19;100874.38;110774;1212;138531;-60
2023/06/07 00:07:00;;;;;;;9.30;4.10;;;;;;;19.52;38.18;100867.65;110963;1208;97730;-60
2023/06/07 00:09:27;;;;;;;10.10;3.70;;;;;;;19.51;38.28;100860.98;110880;1209;104404;-60
2023/06/07 00:11:53;;;;;;;14.30;4.10;;;;;;;19.50;38.43;100860.48;110870;1208;138926;-60
2023/06/07 00:14:19;;;;;;;6.90;3.90;;;;;;;19.50;38.46;100857.08;110871;1208;98129;-60
2023/06/07 00:16:48;;;;;;;6.40;3.50;;;;;;;19.50;38.62;100858.85;110837;1208;138298;-60
2023/06/07 00:19:15;;;;;;;7.20;4.00;;;;;;;19.51;38.61;100863.19;110840;1211;103016;-60
2023/06/07 00:21:40;;;;;;;11.80;4.20;;;;;;;19.50;38.83;100860.14;110870;1208;97691;-59
2023/06/07 00:24:05;;;;;;;13.30;3.90;;;;;;;19.50;38.81;100857.05;110846;1212;139681;-59
2023/06/07 00:26:31;;;;;;;8.80;3.40;;;;;;;19.49;38.85;100854.06;110961;1212;98976;-59
2023/06/07 00:28:56;;;;;;;10.40;4.30;;;;;;;19.49;38.85;100852.65;110722;1209;140227;-59
2023/06/07 00:31:21;;;;;;;7.60;4.20;;;;;;;19.46;38.92;100853.91;110967;1208;98090;-61
2023/06/07 00:33:46;;;;;;;6.90;3.90;;;;;;;19.45;39.13;100856.02;110878;1213;97772;-61
2023/06/07 00:36:12;;;;;;;9.90;3.70;;;;;;;19.43;39.23;100857.25;110806;1211;138597;-60
2023/06/07 00:38:37;;;;;;;7.90;3.70;;;;;;;19.42;39.31;100859.84;110943;1208;98841;-60
2023/06/07 00:41:02;;;;;;;11.90;4.50;;;;;;;19.41;39.36;100859.77;110793;1207;139159;-60
2023/06/07 00:43:27;;;;;;;6.70;3.80;;;;;;;19.39;39.30;100858.79;111026;1208;97643;-60
2023/06/07 00:45:53;;;;;;;7.40;3.70;;;;;;;19.38;39.41;100859.27;110972;1212;97689;-60
2023/06/07 00:48:19;;;;;;;7.50;3.50;;;;;;;19.37;39.39;100858.27;111019;1208;138377;-60
2023/06/07 00:50:45;;;;;;;8.50;3.80;;;;;;;19.35;39.40;100856.42;110945;1214;97613;-60
2023/06/07 00:53:11;;;;;;;10.90;4.30;;;;;;;19.32;39.53;100854.26;110936;1209;137964;-60
2023/06/07 00:55:37;;;;;;;8.90;3.50;;;;;;;19.29;39.64;100851.27;111036;1213;97583;-61
2023/06/07 00:58:03;;;;;;;12.40;4.10;;;;;;;19.26;39.67;100856.02;111008;1211;97300;-60
2023/06/07 01:00:29;;;;;;;7.10;4.00;;;;;;;19.25;39.82;100859.73;110774;1211;138321;-60
2023/06/07 01:02:55;;;;;;;7.00;4.20;;;;;;;19.22;39.90;100859.63;110953;1213;97681;-60
2023/06/07 01:05:21;;;;;;;6.80;3.70;;;;;;;19.19;40.01;100861.46;110933;1208;138457;-59
2023/06/07 01:07:48;;;;;;;11.00;4.40;;;;;;;19.16;40.09;100858.93;110903;1212;99418;-59
2023/06/07 01:10:14;;;;;;;9.80;4.30;;;;;;;19.15;40.03;100866.11;110925;1212;97668;-59
2023/06/07 01:12:43;;;;;;;11.30;4.30;;;;;;;19.11;40.28;100858.73;110924;1208;138695;-60
2023/06/07 01:15:13;;;;;;;9.90;4.00;;;;;;;19.07;40.41;100854.55;110955;1212;102826;-60
2023/06/07 01:17:42;;;;;;;9.80;4.40;;;;;;;19.04;40.37;100858.41;110861;1208;138453;-60
2023/06/07 01:20:13;;;;;;;15.40;4.10;;;;;;;19.00;40.61;100859.80;111004;1208;99260;-60
2023/06/07 01:22:42;;;;;;;9.30;4.00;;;;;;;18.96;40.61;100856.45;110815;1223;139215;-60
2023/06/07 01:25:09;;;;;;;11.30;4.30;;;;;;;18.94;40.79;100856.46;110938;1211;98101;-60
2023/06/07 01:27:36;;;;;;;10.50;4.40;;;;;;;18.92;40.87;100849.77;111013;1208;97613;-60
2023/06/07 01:30:02;;;;;;;11.70;4.20;;;;;;;18.88;41.02;100850.19;110782;1213;138968;-60
2023/06/07 01:32:29;;;;;;;9.10;4.40;;;;;;;18.85;41.23;100853.13;110849;1211;97623;-60
2023/06/07 01:34:54;;;;;;;13.80;4.40;;;;;;;18.83;41.36;100852.57;110873;1213;138604;-59
2023/06/07 01:37:21;;;;;;;11.80;5.00;;;;;;;18.81;41.49;100852.69;110843;1211;104478;-59
2023/06/07 01:39:47;;;;;;;14.20;4.20;;;;;;;18.79;41.55;100850.48;110942;1209;96868;-60
2023/06/07 01:42:15;;;;;;;10.30;4.20;;;;;;;18.74;41.63;100852.17;110911;1212;138197;-60
2023/06/07 01:44:41;;;;;;;11.40;4.30;;;;;;;18.69;41.58;100851.45;110930;1213;97822;-60
2023/06/07 01:47:07;;;;;;;9.10;3.70;;;;;;;18.64;41.85;100845.98;110917;1208;138322;-60
2023/06/07 01:49:32;;;;;;;13.50;4.00;;;;;;;18.59;41.92;100846.94;110899;1211;98978;-60
2023/06/07 01:51:57;;;;;;;7.70;3.50;;;;;;;18.54;42.11;100847.98;110828;1224;98247;-60
2023/06/07 01:54:23;;;;;;;11.10;4.30;;;;;;;18.49;42.09;100848.48;110897;1211;138983;-60
2023/06/07 01:57:25;;;;;;;6.50;4.20;;;;;;;18.47;42.21;100849.95;110911;1208;98294;-60
2023/06/07 01:59:56;;;;;;;6.50;3.80;;;;;;;18.45;42.44;100848.23;110759;1208;138731;-60
2023/06/07 02:02:24;;;;;;;9.80;4.20;;;;;;;18.45;42.38;100844.52;110924;1211;100356;-60
2023/06/07 02:04:56;;;;;;;8.60;4.10;;;;;;;18.43;42.38;100846.05;110660;1211;138960;-60
2023/06/07 02:07:24;;;;;;;10.50;4.40;;;;;;;18.40;42.50;100843.75;110853;1208;97780;-60
2023/06/07 02:09:52;;;;;;;12.50;4.10;;;;;;;18.38;42.38;100846.45;110844;1209;102903;-60
2023/06/07 02:12:19;;;;;;;6.40;4.00;;;;;;;18.36;42.61;100853.48;110857;1210;140054;-60
2023/06/07 02:14:46;;;;;;;9.80;3.80;;;;;;;18.34;42.65;100850.92;110860;1209;99541;-60
2023/06/07 02:17:11;;;;;;;7.10;3.50;;;;;;;18.32;42.53;100847.23;110893;1208;137787;-59
2023/06/07 02:19:37;;;;;;;7.20;4.60;;;;;;;18.29;42.66;100845.27;110988;1208;97586;-60
2023/06/07 02:22:03;;;;;;;11.90;3.80;;;;;;;18.26;42.59;100839.35;110938;1214;96573;-60
2023/06/07 02:24:29;;;;;;;8.80;3.70;;;;;;;18.24;42.64;100839.89;110820;1212;140164;-60
2023/06/07 02:26:55;;;;;;;8.10;4.00;;;;;;;18.20;42.76;100845.04;110879;1209;97739;-59
2023/06/07 02:29:21;;;;;;;5.80;4.20;;;;;;;18.17;42.74;100844.21;110832;1210;137822;-60
2023/06/07 02:31:50;;;;;;;8.10;4.00;;;;;;;18.13;42.83;100842.48;110888;1208;98167;-60
2023/06/07 02:34:16;;;;;;;9.40;3.80;;;;;;;18.10;42.95;100837.84;110823;1212;99664;-60
2023/06/07 02:36:42;;;;;;;6.80;4.10;;;;;;;18.08;42.85;100840.52;110853;1212;138449;-59
2023/06/07 02:39:08;;;;;;;7.10;4.00;;;;;;;18.05;43.04;100843.98;110991;1208;97760;-59
2023/06/07 02:41:34;;;;;;;10.60;4.60;;;;;;;18.02;42.94;100845.63;110798;1212;138776;-60
2023/06/07 02:43:59;;;;;;;9.90;4.00;;;;;;;17.98;43.14;100844.34;110944;1211;97625;-60
2023/06/07 02:46:25;;;;;;;7.10;3.80;;;;;;;17.94;43.08;100846.96;110878;1212;137996;-60
2023/06/07 02:48:51;;;;;;;13.20;4.00;;;;;;;17.91;43.32;100846.61;110844;1212;98490;-60
2023/06/07 02:51:16;;;;;;;6.60;3.60;;;;;;;17.89;43.21;100852.03;110863;1222;97778;-59
2023/06/07 02:53:44;;;;;;;7.20;3.80;;;;;;;17.86;43.32;100851.66;110851;1208;138321;-60
2023/06/07 02:56:11;;;;;;;13.70;4.20;;;;;;;17.83;43.32;100849.88;110905;1212;97582;-60
2023/06/07 02:58:36;;;;;;;6.40;4.00;;;;;;;17.80;43.53;100851.13;110833;1212;138343;-60
2023/06/07 03:01:02;;;;;;;10.60;4.10;;;;;;;17.78;43.54;100847.15;110920;1208;97609;-60
2023/06/07 03:03:27;;;;;;;7.60;3.30;;;;;;;17.76;43.60;100850.35;110850;1211;97668;-60
2023/06/07 03:05:52;;;;;;;5.90;3.50;;;;;;;17.73;43.66;100849.50;110790;1223;138930;-60
2023/06/07 03:08:18;;;;;;;6.30;3.30;;;;;;;17.71;43.85;100847.31;110975;1212;97682;-60
2023/06/07 03:10:44;;;;;;;6.30;4.30;;;;;;;17.66;43.78;100848.89;110912;1208;137980;-60
2023/06/07 03:13:09;;;;;;;7.10;3.70;;;;;;;17.64;43.74;100854.98;110907;1209;97780;-60
2023/06/07 03:15:35;;;;;;;9.50;4.00;;;;;;;17.63;43.90;100855.77;111004;1220;97507;-60
2023/06/07 03:18:04;;;;;;;5.30;3.80;;;;;;;17.61;43.98;100852.48;110780;1208;137801;-60
2023/06/07 03:20:29;;;;;;;9.90;5.70;;;;;;;17.58;44.11;100848.34;111217;1212;99502;-60
2023/06/07 03:22:55;;;;;;;6.20;4.00;;;;;;;17.57;44.16;100849.73;110793;1208;139049;-59
2023/06/07 03:25:20;;;;;;;12.30;3.80;;;;;;;17.57;44.17;100849.19;110969;1212;97701;-60
2023/06/07 03:27:46;;;;;;;5.10;3.80;;;;;;;17.54;44.23;100853.36;110900;1223;97587;-59
2023/06/07 03:30:11;;;;;;;11.50;4.20;;;;;;;17.52;44.28;100854.52;110817;1212;138599;-59
2023/06/07 03:32:37;;;;;;;10.70;4.60;;;;;;;17.50;44.59;100851.41;110966;1212;97674;-60
2023/06/07 03:35:02;;;;;;;10.30;4.20;;;;;;;17.50;44.53;100850.71;110753;1211;138242;-58
2023/06/07 03:37:28;;;;;;;8.00;4.50;;;;;;;17.49;44.74;100853.86;110910;1211;97744;-59
2023/06/07 03:39:53;;;;;;;14.60;3.90;;;;;;;17.51;44.71;100854.64;110797;1208;97700;-59
2023/06/07 03:42:18;;;;;;;11.70;4.90;;;;;;;17.51;44.65;100856.44;110848;1220;138241;-59
2023/06/07 03:44:43;;;;;;;9.80;3.80;;;;;;;17.51;44.79;100856.44;110884;1211;97726;-59
2023/06/07 03:47:09;;;;;;;5.70;3.90;;;;;;;17.51;44.94;100857.50;110797;1222;138328;-59
2023/06/07 03:49:34;;;;;;;9.70;4.50;;;;;;;17.52;44.90;100859.63;110894;1208;97593;-59
2023/06/07 03:52:00;;;;;;;8.10;3.80;;;;;;;17.53;44.99;100859.37;110884;1213;97593;-59
2023/06/07 03:54:25;;;;;;;10.00;4.30;;;;;;;17.54;45.02;100859.98;110840;1208;138888;-59
2023/06/07 03:56:50;;;;;;;11.40;4.80;;;;;;;17.58;45.06;100858.31;110806;1223;98971;-59
2023/06/07 03:59:20;;;;;;;10.10;4.60;;;;;;;17.61;45.06;100862.77;110826;1211;138755;-60
2023/06/07 04:01:46;;;;;;;11.40;4.10;;;;;;;17.65;45.15;100862.89;110936;1214;111849;-59
2023/06/07 04:04:11;;;;;;;10.70;4.70;;;;;;;17.70;45.10;100863.05;110876;1208;96481;-60
2023/06/07 04:06:37;;;;;;;7.90;4.80;;;;;;;17.76;45.16;100862.50;110742;1214;138211;-60
2023/06/07 04:09:03;;;;;;;18.30;4.80;;;;;;;17.79;45.17;100865.15;110918;1208;96513;-60
2023/06/07 04:11:29;;;;;;;14.30;4.90;;;;;;;17.83;45.14;100865.45;110855;1208;139011;-59
2023/06/07 04:13:55;;;;;;;10.80;4.80;;;;;;;17.89;45.33;100865.59;111012;1211;97685;-60
2023/06/07 04:16:20;;;;;;;13.00;5.20;;;;;;;17.94;45.25;100867.20;110956;1211;97619;-60
2023/06/07 04:18:45;;;;;;;19.20;6.50;;;;;;;17.98;45.26;100868.73;110847;1208;137869;-59
2023/06/07 04:21:12;;;;;;;13.40;4.90;;;;;;;18.01;45.28;100867.42;110984;1209;97707;-59
2023/06/07 04:23:37;;;;;;;15.00;5.80;;;;;;;18.04;45.52;100873.21;110819;1212;138718;-59
2023/06/07 04:26:05;;;;;;;10.40;5.30;;;;;;;18.09;45.56;100873.16;110873;1208;97674;-59
2023/06/07 04:28:32;;;;;;;13.80;4.70;;;;;;;18.16;45.54;100865.77;110793;1214;140636;-59
2023/06/07 04:30:58;;;;;;;13.50;5.80;;;;;;;18.23;45.64;100867.10;110946;1208;97634;-60
2023/06/07 04:33:23;;;;;;;16.70;5.20;;;;;;;18.20;45.54;100869.16;111005;1208;98146;-59
2023/06/07 04:35:50;;;;;;;12.20;5.20;;;;;;;18.17;45.65;100867.73;110816;1210;139989;-60
2023/06/07 04:38:20;;;;;;;11.00;5.00;;;;;;;18.18;45.66;100866.25;111144;1207;97602;-59
2023/06/07 04:40:49;;;;;;;11.10;5.40;;;;;;;18.18;45.66;100867.11;110941;1212;140413;-59
2023/06/07 04:43:19;;;;;;;15.30;5.30;;;;;;;18.24;45.94;100866.14;110886;1213;97642;-60
2023/06/07 04:45:54;;;;;;;15.90;5.60;;;;;;;18.32;45.95;100866.23;111039;1211;107683;-60
2023/06/07 04:48:29;;;;;;;13.80;6.20;;;;;;;18.37;45.86;100868.63;110809;1223;139498;-60
2023/06/07 04:51:03;;;;;;;11.20;5.10;;;;;;;18.43;46.06;100872.84;110947;1214;97610;-60
2023/06/07 04:53:34;;;;;;;19.10;5.60;;;;;;;18.51;46.08;100870.44;110833;1211;140287;-60
2023/06/07 04:55:59;;;;;;;13.00;5.30;;;;;;;18.61;45.97;100869.95;110881;1208;97713;-59
2023/06/07 04:58:25;;;;;;;13.50;5.20;;;;;;;18.69;46.03;100870.25;110822;1208;138736;-60
2023/06/07 05:00:51;;;;;;;14.20;6.30;;;;;;;18.77;46.03;100867.82;110979;1208;97809;-60
2023/06/07 05:03:21;;;;;;;12.80;5.50;;;;;;;18.86;45.91;100869.38;110880;1211;102984;-60
2023/06/07 05:05:48;;;;;;;14.60;4.60;;;;;;;18.99;45.85;100871.29;110838;1212;138288;-60
2023/06/07 05:08:14;;;;;;;12.10;5.10;;;;;;;19.13;45.79;100870.25;110875;1208;98120;-60
2023/06/07 05:10:40;;;;;;;16.30;5.90;;;;;;;19.27;45.78;100870.45;110625;1211;138474;-60
2023/06/07 05:13:05;;;;;;;14.70;6.00;;;;;;;19.42;45.79;100871.48;110950;1214;97712;-59
2023/06/07 05:15:31;;;;;;;11.70;5.20;;;;;;;19.58;45.92;100870.76;110852;1208;97684;-60
2023/06/07 05:17:58;;;;;;;16.10;5.30;;;;;;;19.74;45.90;100874.61;110710;1208;138304;-59
2023/06/07 05:20:24;;;;;;;16.00;6.50;;;;;;;19.87;45.78;100873.45;110866;1212;97590;-60
2023/06/07 05:22:50;;;;;;;16.40;5.10;;;;;;;20.01;45.65;100871.38;111128;1207;139410;-59
2023/06/07 05:25:16;;;;;;;13.00;5.40;;;;;;;20.16;45.60;100868.38;110806;1208;97671;-59
2023/06/07 05:27:42;;;;;;;11.90;5.00;;;;;;;20.33;45.57;100872.30;110837;1209;97684;-59
2023/06/07 05:30:08;;;;;;;13.90;5.40;;;;;;;20.46;45.49;100872.34;110705;1208;139229;-59
2023/06/07 05:32:35;;;;;;;9.10;5.00;;;;;;;20.59;45.41;100871.34;113081;1208;95678;-60
2023/06/07 05:35:02;;;;;;;18.30;5.70;;;;;;;20.72;45.28;100869.64;111082;1208;140459;-59
2023/06/07 05:37:29;;;;;;;16.50;4.60;;;;;;;20.89;45.13;100868.41;110816;1208;98574;-59
2023/06/07 05:39:55;;;;;;;11.20;5.10;;;;;;;21.05;44.93;100871.96;110906;1208;97646;-59
2023/06/07 05:42:20;;;;;;;15.20;4.50;;;;;;;21.21;44.68;100871.05;110824;1208;138163;-59
2023/06/07 05:44:46;;;;;;;12.30;4.10;;;;;;;21.32;44.59;100867.90;110810;1212;97835;-60
2023/06/07 05:47:12;;;;;;;14.60;4.10;;;;;;;21.43;44.33;100867.88;110762;1211;138477;-59
2023/06/07 05:49:38;;;;;;;17.50;4.40;;;;;;;21.57;43.98;100866.48;111032;1207;97659;-60
2023/06/07 05:52:04;;;;;;;11.00;4.10;;;;;;;21.69;43.71;100865.84;110815;1214;97665;-59
2023/06/07 05:54:29;;;;;;;9.10;4.80;;;;;;;21.80;43.46;100867.10;110756;1208;138503;-59
2023/06/07 05:56:54;;;;;;;11.90;4.50;;;;;;;21.89;43.15;100869.02;110907;1210;97758;-60
2023/06/07 05:59:19;;;;;;;15.40;4.40;;;;;;;21.96;43.13;100865.80;110739;1212;137922;-60
2023/06/07 06:01:45;;;;;;;22.10;5.20;;;;;;;22.07;42.94;100869.80;110885;1208;97587;-60
2023/06/07 06:04:10;;;;;;;10.70;4.30;;;;;;;22.18;42.84;100869.95;110813;1214;97742;-59
2023/06/07 06:06:38;;;;;;;13.30;4.70;;;;;;;22.27;42.77;100872.39;110876;1208;140748;-59
2023/06/07 06:09:04;;;;;;;8.40;4.00;;;;;;;22.33;42.74;100877.14;110936;1208;97767;-59
2023/06/07 06:11:30;;;;;;;14.30;5.00;;;;;;;22.37;42.38;100873.87;110856;1211;139728;-60
2023/06/07 06:13:55;;;;;;;17.00;4.70;;;;;;;22.44;42.26;100880.20;110819;1212;99602;-60
2023/06/07 06:16:21;;;;;;;10.90;4.70;;;;;;;22.50;42.14;100882.85;110923;1211;97565;-60
2023/06/07 06:18:46;;;;;;;17.10;5.40;;;;;;;22.56;41.98;100885.41;110958;1212;138395;-61
2023/06/07 06:21:11;;;;;;;15.10;4.70;;;;;;;22.61;41.92;100884.62;110854;1211;97568;-60
2023/06/07 06:23:36;;;;;;;13.60;5.50;;;;;;;22.65;41.65;100884.40;110843;1214;140061;-60
2023/06/07 06:26:02;;;;;;;10.30;4.50;;;;;;;22.71;41.77;100887.77;110949;1212;97581;-60
2023/06/07 06:28:28;;;;;;;10.30;4.70;;;;;;;22.74;41.67;100882.70;110816;1214;138786;-60
2023/06/07 06:30:54;;;;;;;8.70;3.70;;;;;;;22.78;41.46;100883.83;110968;1209;97638;-60
2023/06/07 06:33:19;;;;;;;15.50;4.20;;;;;;;22.81;41.36;100885.35;110932;1212;97592;-60
2023/06/07 06:35:45;;;;;;;10.70;4.20;;;;;;;22.85;41.25;100888.33;110821;1212;138529;-60
2023/06/07 06:38:11;;;;;;;11.30;4.40;;;;;;;22.87;41.40;100888.45;110988;1211;99072;-60
2023/06/07 06:40:36;;;;;;;16.90;4.70;;;;;;;22.91;41.23;100893.61;110953;1212;138419;-60
2023/06/07 06:43:02;;;;;;;7.20;4.50;;;;;;;22.93;41.26;100889.76;110855;1212;97611;-60
2023/06/07 06:45:28;;;;;;;8.80;4.10;;;;;;;22.95;41.33;100888.61;111094;1212;97712;-60
2023/06/07 06:47:54;;;;;;;10.20;4.60;;;;;;;22.98;41.29;100888.39;110874;1208;138471;-60
2023/06/07 06:50:19;;;;;;;15.40;4.10;;;;;;;23.00;41.23;100888.02;110714;1212;99009;-59
2023/06/07 06:52:44;;;;;;;13.00;4.10;;;;;;;23.04;41.18;100886.80;110733;1211;138900;-60
2023/06/07 06:55:10;;;;;;;7.40;3.50;;;;;;;23.09;40.91;100882.86;110923;1212;99121;-60
2023/06/07 06:57:35;;;;;;;10.40;3.90;;;;;;;23.13;41.01;100883.33;110960;1220;97684;-60
2023/06/07 07:00:10;;;;;;;12.50;4.20;;;;;;;23.14;40.91;100885.60;110805;1209;138634;-60
2023/06/07 07:02:37;;;;;;;13.70;4.60;;;;;;;23.16;40.84;100884.89;110887;1213;97889;-60
2023/06/07 07:05:05;;;;;;;9.60;4.20;;;;;;;23.20;40.68;100888.37;110702;1211;140612;-60
2023/06/07 07:07:30;;;;;;;13.30;4.10;;;;;;;23.25;40.75;100887.73;110926;1207;97766;-59
2023/06/07 07:09:55;;;;;;;6.70;3.50;;;;;;;23.29;40.45;100890.98;110695;1214;97692;-60
2023/06/07 07:12:24;;;;;;;18.20;4.40;;;;;;;23.34;40.64;100895.83;110827;1220;138013;-59
2023/06/07 07:14:49;;;;;;;9.50;4.20;;;;;;;23.39;40.55;100894.44;110889;1212;111554;-61
2023/06/07 07:17:15;;;;;;;13.00;4.40;;;;;;;23.43;40.57;100895.48;110754;1208;138708;-59
2023/06/07 07:19:40;;;;;;;10.70;4.10;;;;;;;23.48;40.50;100893.15;110965;1212;97780;-59
2023/06/07 07:22:06;;;;;;;8.40;4.70;;;;;;;23.52;40.40;100894.45;110815;1208;97575;-60
2023/06/07 07:24:31;;;;;;;12.10;4.40;;;;;;;23.54;40.36;100899.34;110742;1211;138561;-61
2023/06/07 07:26:56;;;;;;;13.70;4.50;;;;;;;23.58;40.43;100899.41;110840;1211;98048;-60
2023/06/07 07:29:22;;;;;;;21.50;4.40;;;;;;;23.64;40.32;100899.20;110720;1211;138282;-60
2023/06/07 07:31:47;;;;;;;15.30;4.80;;;;;;;23.68;40.28;100897.59;111024;1218;97680;-60
2023/06/07 07:34:12;;;;;;;10.90;3.80;;;;;;;23.72;40.13;100899.55;110802;1211;97608;-61
2023/06/07 07:36:39;;;;;;;15.70;3.50;;;;;;;23.79;40.11;100896.11;110753;1211;140098;-60
2023/06/07 07:39:05;;;;;;;16.60;5.10;;;;;;;23.89;40.19;100900.77;111110;1210;99265;-61
2023/06/07 07:41:34;;;;;;;16.40;4.80;;;;;;;23.95;40.14;100896.58;110901;1210;138228;-60
2023/06/07 07:44:00;;;;;;;10.30;3.80;;;;;;;23.99;40.07;100894.22;110867;1209;97567;-60
2023/06/07 07:46:25;;;;;;;15.00;4.10;;;;;;;24.06;40.03;100896.05;110822;1211;139637;-60
2023/06/07 07:48:51;;;;;;;11.70;4.30;;;;;;;24.15;39.87;100897.38;110915;1210;97771;-61
2023/06/07 07:51:16;;;;;;;9.70;4.10;;;;;;;24.23;39.66;100901.92;110860;1211;97678;-60
2023/06/07 07:53:42;;;;;;;11.10;3.60;;;;;;;24.31;39.82;100900.98;110774;1211;138585;-61
2023/06/07 07:56:07;;;;;;;13.20;4.50;;;;;;;24.36;39.57;100901.20;111119;1209;97607;-60
2023/06/07 07:58:33;;;;;;;11.40;3.90;;;;;;;24.41;39.33;100894.55;110884;1212;139486;-60
2023/06/07 08:00:58;;;;;;;7.20;4.20;;;;;;;24.49;39.09;100897.71;110962;1212;97661;-60
2023/06/07 08:03:23;;;;;;;17.80;3.90;;;;;;;24.56;39.25;100893.63;110898;1212;97613;-60
2023/06/07 08:05:48;;;;;;;10.90;3.80;;;;;;;24.60;38.90;100892.51;110785;1221;139015;-61
2023/06/07 08:08:17;;;;;;;13.00;3.80;;;;;;;24.64;38.99;100894.42;110908;1212;97754;-60
2023/06/07 08:10:42;;;;;;;10.20;4.20;;;;;;;24.70;38.68;100893.36;110709;1209;139644;-61
2023/06/07 08:13:08;;;;;;;12.60;4.10;;;;;;;24.81;38.39;100894.56;110826;1212;97747;-60
2023/06/07 08:15:33;;;;;;;7.20;3.80;;;;;;;24.87;38.25;100895.81;110928;1211;98151;-60
2023/06/07 08:17:58;;;;;;;7.20;3.40;;;;;;;24.93;38.37;100889.92;110751;1209;139664;-61
2023/06/07 08:20:23;;;;;;;4.20;3.10;;;;;;;24.99;37.85;100891.79;110840;1212;97703;-60
2023/06/07 08:22:53;;;;;;;7.20;3.70;;;;;;;25.04;37.73;100894.94;110697;1206;138073;-60
2023/06/07 08:25:18;;;;;;;9.00;3.40;;;;;;;25.08;37.58;100893.04;110845;1212;97606;-60
2023/06/07 08:27:45;;;;;;;8.20;3.60;;;;;;;25.13;37.28;100892.85;110912;1213;97636;-60
2023/06/07 08:30:11;;;;;;;8.50;3.60;;;;;;;25.18;37.14;100893.98;111028;1209;140986;-60
2023/06/07 08:32:37;;;;;;;9.80;3.50;;;;;;;25.24;36.92;100892.84;110933;1212;97290;-60
2023/06/07 08:35:03;;;;;;;6.30;3.40;;;;;;;25.28;36.94;100885.88;110752;1212;138822;-60
2023/06/07 08:37:28;;;;;;;5.70;3.60;;;;;;;25.32;36.76;100885.31;110860;1209;97598;-60
2023/06/07 08:39:53;;;;;;;5.40;3.10;;;;;;;25.36;36.72;100884.70;110929;1218;97641;-61
2023/06/07 08:42:18;;;;;;;9.30;2.90;;;;;;;25.41;36.51;100886.34;110970;1212;137936;-60
2023/06/07 08:44:44;;;;;;;11.40;3.50;;;;;;;25.47;36.18;100885.84;110901;1212;96966;-60
2023/06/07 08:47:12;;;;;;;11.90;3.20;;;;;;;25.54;36.13;100885.16;110548;1210;139649;-60
2023/06/07 08:49:40;;;;;;;8.20;3.10;;;;;;;25.60;35.96;100881.16;110951;1209;99869;-60
2023/06/07 08:52:09;;;;;;;7.10;3.20;;;;;;;25.65;35.55;100885.05;110764;1212;98047;-60
2023/06/07 08:54:40;;;;;;;5.60;3.30;;;;;;;25.68;35.45;100885.63;111000;1212;138825;-60
2023/06/07 08:57:06;;;;;;;5.30;3.70;;;;;;;25.66;35.12;100884.91;110728;1212;104372;-60
2023/06/07 08:59:32;;;;;;;10.30;3.20;;;;;;;25.66;35.15;100883.16;110783;1209;139858;-60
2023/06/07 09:01:57;;;;;;;12.90;4.10;;;;;;;25.71;35.08;100882.42;110920;1212;97687;-60
2023/06/07 09:04:23;;;;;;;8.80;3.10;;;;;;;25.79;35.04;100880.95;110774;1212;138606;-59
2023/06/07 09:06:49;;;;;;;10.00;2.80;;;;;;;25.91;34.83;100883.41;110866;1212;97642;-60
2023/06/07 09:09:14;;;;;;;6.30;2.60;;;;;;;26.01;34.54;100883.39;110848;1209;97777;-59
2023/06/07 09:11:40;;;;;;;8.40;3.00;;;;;;;26.10;34.44;100888.50;110725;1222;138770;-60
2023/06/07 09:14:06;;;;;;;8.50;3.40;;;;;;;26.21;34.29;100888.61;110932;1210;97709;-60
2023/06/07 09:16:50;;;;;;;10.60;3.60;;;;;;;26.31;34.05;100890.34;110875;1216;138268;-61
2023/06/07 09:19:29;;;;;;;13.40;3.20;;;;;;;26.39;34.06;100894.23;110757;1212;99298;-60
2023/06/07 09:21:56;;;;;;;41.20;4.60;;;;;;;26.47;33.94;100892.55;110916;1213;97700;-59
2023/06/07 09:24:29;;;;;;;16.70;4.50;;;;;;;26.55;33.74;100891.50;110801;1212;140254;-60
2023/06/07 09:26:57;;;;;;;5.60;3.10;;;;;;;26.60;33.60;100888.88;110852;1226;102998;-60
2023/06/07 09:29:23;;;;;;;11.00;3.50;;;;;;;26.66;33.41;100892.23;110800;1209;139557;-60
2023/06/07 09:31:48;;;;;;;10.50;3.40;;;;;;;26.70;33.27;100895.01;111056;1212;98223;-60
2023/06/07 09:34:26;;;;;;;8.60;3.00;;;;;;;26.67;33.02;100897.91;110873;1212;97671;-60
2023/06/07 09:36:53;;;;;;;11.60;3.30;;;;;;;26.62;32.92;100893.59;110961;1212;102521;-59
2023/06/07 09:39:29;;;;;;;7.00;2.70;;;;;;;26.60;32.75;100895.09;111287;1208;97789;-60
2023/06/07 09:41:57;;;;;;;4.70;2.60;;;;;;;26.58;32.24;100897.18;110762;1212;139769;-60
2023/06/07 09:44:30;;;;;;;6.60;2.70;;;;;;;26.50;31.94;100901.12;111026;1212;98386;-62
2023/06/07 09:46:56;;;;;;;9.50;3.90;;;;;;;26.45;31.86;100900.92;110832;1212;139782;-59
2023/06/07 09:49:35;;;;;;;5.20;2.80;;;;;;;26.46;31.88;100900.97;110959;1210;96538;-61
2023/06/07 09:52:11;;;;;;;5.60;3.10;;;;;;;26.51;31.72;100897.56;111010;1212;101847;-60
2023/06/07 09:54:38;;;;;;;11.20;2.80;;;;;;;26.53;31.65;100895.64;110839;1209;142709;-59
2023/06/07 09:57:27;;;;;;;8.00;3.20;;;;;;;26.57;31.53;100889.61;111109;1212;97595;-60
2023/06/07 10:00:16;;;;;;;9.20;3.30;;;;;;;26.58;31.44;100886.39;110675;1209;139695;-59
2023/06/07 10:02:43;;;;;;;8.20;2.80;;;;;;;26.55;31.06;100884.84;110853;1224;102769;-59
2023/06/07 10:05:12;;;;;;;10.90;3.40;;;;;;;26.49;30.91;100887.34;110809;1209;140053;-60
2023/06/07 10:07:42;;;;;;;6.80;2.70;;;;;;;26.53;31.07;100885.03;110909;1210;101112;-60
2023/06/07 10:10:14;;;;;;;4.00;3.10;;;;;;;26.65;31.20;100882.16;110703;1210;97603;-59
2023/06/07 10:12:41;;;;;;;10.60;2.90;;;;;;;26.79;31.08;100878.73;110751;1212;138072;-60
2023/06/07 10:15:09;;;;;;;9.40;2.90;;;;;;;26.87;30.89;100881.40;110740;1210;103222;-60
2023/06/07 10:17:48;;;;;;;4.30;2.60;;;;;;;26.85;30.57;100874.96;110983;1209;138145;-59
2023/06/07 10:20:24;;;;;;;11.30;3.10;;;;;;;26.78;30.36;100872.32;110802;1212;99443;-60
2023/06/07 10:22:55;;;;;;;8.30;3.30;;;;;;;26.83;30.53;100872.48;110798;1209;139319;-59
2023/06/07 10:25:23;;;;;;;8.30;3.00;;;;;;;26.95;30.33;100866.59;110839;1212;96491;-59
2023/06/07 10:28:04;;;;;;;9.40;3.20;;;;;;;27.04;30.34;100864.16;111009;1212;102995;-60
2023/06/07 10:30:32;;;;;;;5.50;3.00;;;;;;;27.17;30.14;100865.84;110755;1224;140771;-60
2023/06/07 10:32:58;;;;;;;13.20;3.30;;;;;;;27.28;30.11;100867.79;110703;1212;99558;-59
2023/06/07 10:35:24;;;;;;;5.40;2.90;;;;;;;27.35;30.05;100872.52;110793;1209;140560;-60
2023/06/07 10:37:53;;;;;;;7.20;2.80;;;;;;;27.36;30.10;100873.06;111093;1217;97611;-60
2023/06/07 10:40:20;;;;;;;9.10;3.40;;;;;;;27.35;29.85;100867.53;111021;1211;100336;-60
2023/06/07 10:42:46;;;;;;;4.90;3.10;;;;;;;27.34;29.79;100867.21;110921;1219;139173;-59
2023/06/07 10:45:15;;;;;;;6.40;2.80;;;;;;;27.35;29.78;100867.52;110968;1209;97683;-60
2023/06/07 10:47:41;;;;;;;9.30;2.90;;;;;;;27.46;29.53;100861.10;110770;1211;138567;-60
2023/06/07 10:50:07;;;;;;;7.80;2.50;;;;;;;27.61;29.37;100861.66;110990;1210;97655;-60
2023/06/07 10:52:33;;;;;;;8.90;3.40;;;;;;;27.74;29.17;100859.46;110976;1209;138195;-60
2023/06/07 10:54:58;;;;;;;10.60;3.00;;;;;;;27.83;28.80;100855.74;110881;1211;97725;-60
2023/06/07 10:57:37;;;;;;;5.60;2.50;;;;;;;27.91;28.77;100854.84;110894;1212;97553;-60
2023/06/07 11:00:31;;;;;;;4.60;2.70;;;;;;;28.08;28.59;100856.55;110920;1212;138148;-60
2023/06/07 11:03:10;;;;;;;4.50;2.50;;;;;;;28.33;28.55;100854.45;111001;1212;103030;-60
2023/06/07 11:06:02;;;;;;;12.80;3.10;;;;;;;28.57;28.41;100850.84;110759;1212;138190;-60
2023/06/07 11:08:30;;;;;;;6.30;2.80;;;;;;;28.83;28.29;100852.66;110823;1209;99246;-60
2023/06/07 11:11:00;;;;;;;4.60;2.40;;;;;;;29.00;28.17;100855.04;110842;1209;138163;-60